createdAt,value
2023-10-25T00:01:31.320Z,214.64
2023-10-25T00:04:37.632Z,219.03
2023-10-25T00:07:44.549Z,214.36
2023-10-25T00:10:52.924Z,217.60
2023-10-25T00:13:59.760Z,212.61
2023-10-25T00:17:05.549Z,210.87
2023-10-25T00:20:13.105Z,209.19
2023-10-25T00:23:19.039Z,203.87
2023-10-25T00:26:28.256Z,198.75
2023-10-25T00:29:35.341Z,197.65
2023-10-25T00:32:42.973Z,199.48
2023-10-25T00:35:48.761Z,192.23
2023-10-25T00:38:55.387Z,191.69
2023-10-25T00:42:03.827Z,189.74
2023-10-25T00:45:13.043Z,186.89
2023-10-25T00:48:19.211Z,186.97
2023-10-25T00:51:28.175Z,191.08
2023-10-25T00:54:34.102Z,189.74
2023-10-25T00:57:43.566Z,188.01
2023-10-25T01:00:50.738Z,188.45
2023-10-25T01:03:58.630Z,191.33
2023-10-25T01:07:05.163Z,192.98
2023-10-25T01:10:13.521Z,188.02
2023-10-25T01:13:24.113Z,196.71
2023-10-25T01:16:30.989Z,192.92
2023-10-25T01:19:36.875Z,190.92
2023-10-25T01:22:46.157Z,191.61
2023-10-25T01:25:52.617Z,190.42
2023-10-25T01:28:59.270Z,191.14
2023-10-25T01:32:05.489Z,180.64
2023-10-25T01:35:13.365Z,162.30
2023-10-25T01:38:21.906Z,161.76
2023-10-25T01:41:28.686Z,155.10
2023-10-25T01:44:34.495Z,136.73
2023-10-25T01:47:41.682Z,120.19
2023-10-25T01:50:47.471Z,114.15
2023-10-25T01:53:56.688Z,112.28
2023-10-25T01:57:02.777Z,110.38
2023-10-25T02:00:11.316Z,113.06
2023-10-25T02:03:20.156Z,121.85
2023-10-25T02:06:26.715Z,134.06
2023-10-25T02:09:35.328Z,118.51
2023-10-25T02:12:42.019Z,109.11
2023-10-25T02:15:48.260Z,91.75
2023-10-25T02:18:55.044Z,86.70
2023-10-25T02:22:01.039Z,79.98
2023-10-25T02:25:11.751Z,74.27
2023-10-25T02:28:17.613Z,78.38
2023-10-25T02:31:24.401Z,79.96
2023-10-25T02:34:30.342Z,82.50
2023-10-25T02:37:36.981Z,90.52
2023-10-25T02:40:45.328Z,93.53
2023-10-25T02:43:52.630Z,105.99
2023-10-25T02:47:00.394Z,118.14
2023-10-25T02:50:07.999Z,123.81
2023-10-25T02:53:14.416Z,129.00
2023-10-25T02:56:23.648Z,137.21
2023-10-25T02:59:29.531Z,139.57
2023-10-25T03:02:36.305Z,147.11
2023-10-25T03:05:42.338Z,150.87
2023-10-25T03:08:50.698Z,153.56
2023-10-25T03:11:59.529Z,156.85
2023-10-25T03:15:06.375Z,162.36
2023-10-25T03:18:12.510Z,155.81
2023-10-25T03:21:19.366Z,146.62
2023-10-25T03:24:25.095Z,138.90
2023-10-25T03:27:34.296Z,134.66
2023-10-25T03:30:40.952Z,136.18
2023-10-25T03:33:49.687Z,133.78
2023-10-25T03:36:55.801Z,136.53
2023-10-25T03:40:02.761Z,145.69
2023-10-25T03:43:11.339Z,137.81
2023-10-25T03:46:18.101Z,136.03
2023-10-25T03:49:23.892Z,140.77
2023-10-25T03:52:30.592Z,144.17
2023-10-25T03:55:36.349Z,150.34
2023-10-25T03:58:46.406Z,151.22
2023-10-25T04:01:52.445Z,149.03
2023-10-25T04:04:59.507Z,150.26
2023-10-25T04:08:05.268Z,202.97
2023-10-25T04:11:12.017Z,242.27
2023-10-25T04:14:20.647Z,184.87
2023-10-25T04:17:27.311Z,162.88
2023-10-25T04:20:36.081Z,156.39
2023-10-25T04:23:44.018Z,152.70
2023-10-25T04:26:49.993Z,152.36
2023-10-25T04:30:00.152Z,151.44
2023-10-25T04:33:06.827Z,151.49
2023-10-25T04:36:13.587Z,158.98
2023-10-25T04:39:19.916Z,153.76
2023-10-25T04:42:26.648Z,153.11
2023-10-25T04:45:35.138Z,157.12
2023-10-25T04:48:41.870Z,156.13
2023-10-25T04:51:47.887Z,159.22
2023-10-25T04:54:54.708Z,159.31
2023-10-25T04:58:00.788Z,163.88
2023-10-25T05:01:18.540Z,168.13
2023-10-25T05:04:24.451Z,164.89
2023-10-25T05:07:31.969Z,165.77
2023-10-25T05:10:39.066Z,183.50
2023-10-25T05:13:47.077Z,176.48
2023-10-25T05:16:56.537Z,183.09
2023-10-25T05:20:04.514Z,185.64
2023-10-25T05:23:13.917Z,184.34
2023-10-25T05:26:21.552Z,181.41
2023-10-25T05:29:28.611Z,176.99
2023-10-25T05:32:41.083Z,175.60
2023-10-25T05:35:47.881Z,170.71
2023-10-25T05:38:55.611Z,180.39
2023-10-25T05:42:09.131Z,181.19
2023-10-25T05:45:15.844Z,168.86
2023-10-25T05:48:25.345Z,166.14
2023-10-25T05:51:33.032Z,165.81
2023-10-25T05:54:40.179Z,164.88
2023-10-25T05:57:48.452Z,161.64
2023-10-25T06:00:57.454Z,176.05
2023-10-25T06:04:12.571Z,180.13
2023-10-25T06:07:20.456Z,178.28
2023-10-25T06:10:30.403Z,172.09
2023-10-25T06:13:37.695Z,167.73
2023-10-25T06:16:44.568Z,163.15
2023-10-25T06:19:54.039Z,161.89
2023-10-25T06:23:01.340Z,158.37
2023-10-25T06:26:07.366Z,152.47
2023-10-25T06:29:14.107Z,152.69
2023-10-25T06:32:21.601Z,157.58
2023-10-25T06:35:31.016Z,153.50
2023-10-25T06:38:38.079Z,159.82
2023-10-25T06:41:48.170Z,153.31
2023-10-25T06:44:55.237Z,154.01
2023-10-25T06:48:02.898Z,155.36
2023-10-25T06:51:13.815Z,156.11
2023-10-25T06:54:21.429Z,157.86
2023-10-25T06:57:28.288Z,156.77
2023-10-25T07:00:36.968Z,154.77
2023-10-25T07:03:50.971Z,150.02
2023-10-25T07:07:02.138Z,147.38
2023-10-25T07:10:10.546Z,146.17
2023-10-25T07:13:17.257Z,145.97
2023-10-25T07:16:23.573Z,145.91
2023-10-25T07:19:30.258Z,142.18
2023-10-25T07:22:39.530Z,140.85
2023-10-25T07:25:46.775Z,137.82
2023-10-25T07:28:52.481Z,135.93
2023-10-25T07:31:59.128Z,136.20
2023-10-25T07:35:05.260Z,133.80
2023-10-25T07:38:14.467Z,136.05
2023-10-25T07:41:20.276Z,128.23
2023-10-25T07:44:26.994Z,128.72
2023-10-25T07:47:33.063Z,130.68
2023-10-25T07:50:39.786Z,123.28
2023-10-25T07:53:48.166Z,122.05
2023-10-25T08:00:04.128Z,135.61
2023-10-25T08:03:19.207Z,124.80
2023-10-25T08:06:25.721Z,122.29
2023-10-25T08:09:36.913Z,121.77
2023-10-25T08:12:42.731Z,122.13
2023-10-25T08:15:50.687Z,122.09
2023-10-25T08:18:56.702Z,129.44
2023-10-25T08:22:04.498Z,122.46
2023-10-25T08:25:13.480Z,115.32
2023-10-25T08:28:20.172Z,113.66
2023-10-25T08:31:26.525Z,108.07
2023-10-25T08:34:33.943Z,110.25
2023-10-25T08:37:42.350Z,106.45
2023-10-25T08:40:52.783Z,104.79
2023-10-25T08:43:59.177Z,100.46
2023-10-25T08:47:05.837Z,110.69
2023-10-25T08:50:15.395Z,107.12
2023-10-25T08:53:27.699Z,98.26
2023-10-25T08:56:36.299Z,95.45
2023-10-25T08:59:48.640Z,94.86
2023-10-25T09:02:58.306Z,91.45
2023-10-25T09:06:07.879Z,92.23
2023-10-25T09:09:14.254Z,89.70
2023-10-25T09:12:27.483Z,87.09
2023-10-25T09:15:34.144Z,84.16
2023-10-25T09:18:44.061Z,86.29
2023-10-25T09:21:50.009Z,84.88
2023-10-25T09:24:59.755Z,78.14
2023-10-25T09:28:08.820Z,69.10
2023-10-25T09:31:27.892Z,64.71
2023-10-25T09:34:33.928Z,57.73
2023-10-25T09:37:40.612Z,54.14
2023-10-25T09:40:47.273Z,54.47
2023-10-25T09:44:02.563Z,50.71
2023-10-25T09:47:13.961Z,48.06
2023-10-25T09:50:32.658Z,52.71
2023-10-25T09:53:47.679Z,52.84
2023-10-25T09:57:00.303Z,50.94
2023-10-25T10:00:12.507Z,51.91
2023-10-25T10:03:34.734Z,48.42
2023-10-25T10:06:54.105Z,47.67
2023-10-25T10:10:18.906Z,48.99
2023-10-25T10:13:25.829Z,53.19
2023-10-25T10:16:36.736Z,60.47
2023-10-25T10:19:44.751Z,61.78
2023-10-25T10:23:06.523Z,61.83
2023-10-25T10:26:13.406Z,63.33
2023-10-25T10:29:43.023Z,60.11
2023-10-25T10:32:59.783Z,58.58
2023-10-25T10:36:07.062Z,63.96
2023-10-25T10:39:17.908Z,60.68
2023-10-25T10:42:25.683Z,52.56
2023-10-25T10:45:34.580Z,54.27
2023-10-25T10:48:49.361Z,58.10
2023-10-25T10:51:56.611Z,59.57
2023-10-25T10:55:03.342Z,63.56
2023-10-25T10:58:10.016Z,68.79
2023-10-25T11:01:16.800Z,68.55
2023-10-25T11:04:25.321Z,65.97
2023-10-25T11:07:32.032Z,63.06
2023-10-25T11:10:37.952Z,62.71
2023-10-25T11:13:44.818Z,63.45
2023-10-25T11:16:50.720Z,63.86
2023-10-25T11:20:01.175Z,61.89
2023-10-25T11:23:08.130Z,65.46
2023-10-25T11:26:14.863Z,58.57
2023-10-25T11:29:21.930Z,56.29
2023-10-25T11:32:28.609Z,57.78
2023-10-25T11:35:39.430Z,54.21
2023-10-25T11:38:47.439Z,45.10
2023-10-25T11:41:54.483Z,46.41
2023-10-25T11:45:03.870Z,46.74
2023-10-25T11:48:12.219Z,47.19
2023-10-25T11:51:22.831Z,47.25
2023-10-25T11:54:28.760Z,47.02
2023-10-25T11:57:37.118Z,51.15
2023-10-25T12:00:42.897Z,40.66
2023-10-25T12:03:50.201Z,33.56
2023-10-25T12:06:59.093Z,35.41
2023-10-25T12:10:06.671Z,32.95
2023-10-25T12:13:12.451Z,30.16
2023-10-25T12:16:19.135Z,30.99
2023-10-25T12:19:25.054Z,32.79
2023-10-25T12:22:34.256Z,30.74
2023-10-25T12:25:40.144Z,26.77
2023-10-25T12:28:47.054Z,28.32
2023-10-25T12:31:52.970Z,37.76
2023-10-25T12:34:59.713Z,38.20
2023-10-25T12:38:08.134Z,31.63
2023-10-25T12:41:14.781Z,47.09
2023-10-25T12:44:20.858Z,49.88
2023-10-25T12:47:27.529Z,47.92
2023-10-25T12:50:33.597Z,51.20
2023-10-25T12:53:43.304Z,45.26
2023-10-25T12:56:49.624Z,36.60
2023-10-25T12:59:56.350Z,31.49
2023-10-25T13:03:02.301Z,38.09
2023-10-25T13:06:09.964Z,44.38
2023-10-25T13:09:18.486Z,44.22
2023-10-25T13:12:25.224Z,37.12
2023-10-25T13:15:31.232Z,30.65
2023-10-25T13:18:38.010Z,31.63
2023-10-25T13:21:45.002Z,28.96
2023-10-25T13:24:54.206Z,32.03
2023-10-25T13:28:00.291Z,32.75
2023-10-25T13:31:07.400Z,33.62
2023-10-25T13:34:13.304Z,34.36
2023-10-25T13:37:20.943Z,28.64
2023-10-25T13:40:29.357Z,30.40
2023-10-25T13:43:40.912Z,31.42
2023-10-25T13:46:46.748Z,31.36
2023-10-25T13:49:53.417Z,33.04
2023-10-25T13:52:59.275Z,49.28
2023-10-25T13:56:10.143Z,39.23
2023-10-25T13:59:16.241Z,35.22
2023-10-25T14:02:22.913Z,37.76
2023-10-25T14:05:28.828Z,35.25
2023-10-25T14:08:36.260Z,31.87
2023-10-25T14:11:48.093Z,30.78
2023-10-25T14:14:54.839Z,32.85
2023-10-25T14:18:00.915Z,31.57
2023-10-25T14:21:16.504Z,45.25
2023-10-25T14:24:26.224Z,30.10
2023-10-25T14:27:39.943Z,31.81
2023-10-25T14:30:47.559Z,34.52
2023-10-25T14:33:55.095Z,34.72
2023-10-25T14:37:00.966Z,36.13
2023-10-25T14:40:10.518Z,38.01
2023-10-25T14:43:18.976Z,41.47
2023-10-25T14:46:28.840Z,39.59
2023-10-25T14:49:35.069Z,36.29
2023-10-25T14:52:44.656Z,596.78
2023-10-25T14:55:50.878Z,1118.79
2023-10-25T14:59:00.394Z,68.74
2023-10-25T15:02:06.231Z,39.80
2023-10-25T15:05:13.522Z,50.50
2023-10-25T15:08:19.400Z,95.13
2023-10-25T15:11:26.448Z,203.73
2023-10-25T15:14:39.410Z,149.89
2023-10-25T15:17:49.877Z,55.08
2023-10-25T15:20:56.093Z,44.14
2023-10-25T15:24:02.796Z,41.68
2023-10-25T15:27:08.828Z,60.44
2023-10-25T15:30:19.956Z,49.67
2023-10-25T15:33:26.104Z,53.75
2023-10-25T15:36:32.751Z,46.87
2023-10-25T15:39:38.696Z,47.33
2023-10-25T15:42:47.038Z,51.32
2023-10-25T15:45:55.894Z,55.24
2023-10-25T15:49:03.711Z,64.32
2023-10-25T15:52:12.374Z,52.66
2023-10-25T15:55:19.193Z,64.39
2023-10-25T15:58:25.078Z,71.46
2023-10-25T16:01:45.460Z,100.94
2023-10-25T16:05:00.293Z,117.30
2023-10-25T16:08:07.043Z,130.97
2023-10-25T16:11:16.677Z,128.25
2023-10-25T16:14:24.597Z,131.23
2023-10-25T16:17:33.250Z,106.13
2023-10-25T16:20:44.486Z,196.34
2023-10-25T16:23:50.574Z,187.56
2023-10-25T16:26:58.206Z,204.21
2023-10-25T16:30:04.391Z,222.47
2023-10-25T16:33:13.914Z,182.74
2023-10-25T16:36:19.799Z,143.74
2023-10-25T16:39:26.359Z,158.37
2023-10-25T16:42:32.716Z,152.93
2023-10-25T16:45:39.873Z,145.62
2023-10-25T16:48:48.953Z,151.92
2023-10-25T16:51:55.610Z,177.56
2023-10-25T16:55:01.869Z,169.97
2023-10-25T16:58:08.516Z,151.91
2023-10-25T17:01:17.453Z,139.62
2023-10-25T17:04:26.850Z,143.11
2023-10-25T17:07:32.927Z,139.80
2023-10-25T17:10:40.367Z,155.11
2023-10-25T17:13:46.171Z,169.37
2023-10-25T17:16:52.985Z,205.23
2023-10-25T17:20:01.448Z,221.55
2023-10-25T17:23:08.066Z,229.17
2023-10-25T17:26:15.186Z,239.21
2023-10-25T17:29:21.968Z,362.08
2023-10-25T17:32:30.826Z,365.51
2023-10-25T17:35:40.357Z,228.91
2023-10-25T17:38:46.169Z,187.92
2023-10-25T17:41:52.830Z,269.62
2023-10-25T17:44:58.786Z,292.23
2023-10-25T17:48:05.484Z,289.39
2023-10-25T17:51:14.626Z,352.53
2023-10-25T17:54:21.422Z,574.17
2023-10-25T17:57:27.594Z,459.20
2023-10-25T18:00:34.464Z,396.74
2023-10-25T18:03:40.562Z,534.50
2023-10-25T18:07:06.541Z,533.39
2023-10-25T18:10:14.280Z,562.31
2023-10-25T18:13:21.417Z,583.45
2023-10-25T18:16:27.322Z,561.81
2023-10-25T18:19:34.077Z,543.47
2023-10-25T18:22:42.987Z,540.74
2023-10-25T18:25:50.329Z,594.44
2023-10-25T18:28:56.228Z,643.53
2023-10-25T18:32:24.311Z,576.71
2023-10-25T18:35:30.396Z,639.60
2023-10-25T18:38:40.082Z,601.71
2023-10-25T18:41:46.122Z,616.02
2023-10-25T18:44:57.916Z,656.76
2023-10-25T18:48:03.843Z,689.82
2023-10-25T18:51:14.479Z,619.31
2023-10-25T18:54:23.217Z,600.15
2023-10-25T18:57:29.927Z,441.08
2023-10-25T19:00:35.974Z,341.38
2023-10-25T19:03:42.873Z,336.53
2023-10-25T19:07:01.204Z,324.76
2023-10-25T19:10:29.774Z,371.42
2023-10-25T19:13:36.853Z,352.18
2023-10-25T19:16:43.836Z,342.15
2023-10-25T19:19:58.155Z,387.17
2023-10-25T19:23:16.687Z,381.38
2023-10-25T19:26:27.612Z,345.74
2023-10-25T19:29:40.431Z,343.47
2023-10-25T19:32:46.702Z,396.57
2023-10-25T19:35:53.273Z,577.25
2023-10-25T19:39:07.290Z,530.30
2023-10-25T19:42:16.690Z,514.11
2023-10-25T19:45:23.527Z,501.25
2023-10-25T19:48:30.332Z,440.72
2023-10-25T19:51:37.331Z,366.62
2023-10-25T19:54:44.431Z,391.02
2023-10-25T19:57:55.798Z,459.55
2023-10-25T20:01:02.560Z,594.90
2023-10-25T20:04:09.123Z,683.73
2023-10-25T20:07:15.953Z,700.28
2023-10-25T20:10:22.222Z,579.13
2023-10-25T20:13:31.778Z,535.08
2023-10-25T20:16:37.654Z,404.36
2023-10-25T20:19:44.209Z,344.05
2023-10-25T20:22:50.040Z,338.79
2023-10-25T20:26:00.236Z,318.18
2023-10-25T20:29:11.914Z,336.15
2023-10-25T20:32:18.586Z,336.10
2023-10-25T20:35:24.488Z,339.97
2023-10-25T20:38:31.501Z,358.75
2023-10-25T20:41:37.345Z,387.54
2023-10-25T20:44:50.017Z,979.38
2023-10-25T20:47:56.000Z,859.82
2023-10-25T20:51:05.094Z,738.00
2023-10-25T20:54:11.146Z,473.64
2023-10-25T20:57:17.731Z,385.28
2023-10-25T21:00:26.444Z,526.75
2023-10-25T21:03:33.878Z,597.54
2023-10-25T21:06:40.192Z,664.37
2023-10-25T21:09:47.031Z,564.57
2023-10-25T21:12:53.044Z,576.20
2023-10-25T21:16:05.273Z,555.80
2023-10-25T21:19:11.294Z,508.44
2023-10-25T21:22:17.972Z,485.22
2023-10-25T21:25:23.732Z,481.55
2023-10-25T21:28:30.562Z,431.67
2023-10-25T21:31:39.088Z,399.79
2023-10-25T21:34:46.262Z,379.45
2023-10-25T21:37:52.707Z,378.94
2023-10-25T21:40:59.618Z,392.05
2023-10-25T21:44:05.426Z,374.15
2023-10-25T21:47:14.774Z,348.85
2023-10-25T21:50:20.821Z,336.78
2023-10-25T21:53:27.590Z,342.16
2023-10-25T21:56:33.392Z,338.88
2023-10-25T21:59:48.697Z,334.90
2023-10-25T22:03:02.099Z,331.91
2023-10-25T22:06:09.323Z,338.05
2023-10-25T22:09:15.814Z,338.94
2023-10-25T22:12:22.699Z,342.88
2023-10-25T22:15:29.630Z,341.67
2023-10-25T22:18:38.822Z,344.56
2023-10-25T22:21:45.251Z,337.99
2023-10-25T22:24:51.794Z,329.12
2023-10-25T22:28:00.155Z,338.41
2023-10-25T22:31:07.676Z,348.28
2023-10-25T22:34:19.658Z,356.01
2023-10-25T22:37:26.776Z,417.04
2023-10-25T22:40:32.317Z,423.69
2023-10-25T22:43:38.702Z,404.89
2023-10-25T22:46:44.362Z,383.52
2023-10-25T22:49:53.608Z,369.98
2023-10-25T22:52:59.243Z,350.78
2023-10-25T22:56:12.622Z,347.76
2023-10-25T22:59:18.259Z,340.91
2023-10-25T23:02:25.239Z,327.43
2023-10-25T23:05:33.524Z,321.95
2023-10-25T23:08:40.008Z,319.07
2023-10-25T23:11:45.833Z,313.36
2023-10-25T23:14:52.337Z,311.45
2023-10-25T23:17:58.193Z,307.48
2023-10-25T23:21:08.399Z,319.24
2023-10-25T23:24:14.151Z,336.10
2023-10-25T23:27:20.581Z,351.65
2023-10-25T23:30:26.175Z,350.61
2023-10-25T23:33:32.661Z,346.96
2023-10-25T23:36:40.880Z,343.45
2023-10-25T23:39:47.408Z,339.29
2023-10-25T23:42:53.137Z,340.75
2023-10-25T23:46:00.406Z,374.62
2023-10-25T23:49:06.337Z,384.93
2023-10-25T23:52:15.701Z,370.89
2023-10-25T23:55:21.381Z,378.63
2023-10-25T23:58:27.945Z,378.39
